Wetterstation Vordersexau
Wetterdaten: Woche 21.05.12 - 27.05.12 (KW21)
Datum Zeit Temp. A. Feuchte A. Luftdruck Regen Wind Richtung Taupunkt Windchill Windben
21.05.2012 00:00 15,5 C 81 % 999,2 hPa 0,0 l/m 16,8 km/h N-NO 12,3 C 11,2 C 9,4 km/h
21.05.2012 01:00 15,3 C 81 % 998,8 hPa 0,0 l/m 2,6 km/h N-NO 12,1 C 15,3 C 1,4 km/h
21.05.2012 02:00 14,4 C 82 % 998,9 hPa 0,0 l/m 0,0 km/h O-NO 11,4 C 14,4 C 0,0 km/h
21.05.2012 03:00 14,3 C 83 % 998,8 hPa 0,0 l/m 0,0 km/h NO 11,5 C 14,3 C 0,0 km/h
21.05.2012 04:00 14,4 C 83 % 998,0 hPa 0,0 l/m 0,0 km/h N-NO 11,5 C 14,4 C 0,0 km/h
21.05.2012 05:00 14,0 C 83 % 997,4 hPa 0,0 l/m 0,6 km/h O 11,2 C 14,0 C 0,4 km/h
21.05.2012 06:00 13,3 C 83 % 997,0 hPa 0,0 l/m 0,0 km/h W-NW 10,5 C 13,3 C 0,0 km/h
21.05.2012 07:00 14,8 C 83 % 997,3 hPa 0,0 l/m 0,0 km/h W-NW 11,9 C 14,8 C 0,0 km/h
21.05.2012 08:00 15,6 C 81 % 997,3 hPa 0,0 l/m 1,3 km/h W 12,3 C 15,6 C 0,7 km/h
21.05.2012 09:00 17,1 C 77 % 997,0 hPa 0,0 l/m 0,0 km/h W 13,0 C 17,1 C 0,0 km/h
21.05.2012 10:00 18,5 C 73 % 996,8 hPa 0,0 l/m 0,0 km/h W-SW 13,6 C 18,5 C 0,0 km/h
21.05.2012 11:00 22,9 C 62 % 996,9 hPa 0,0 l/m 12,3 km/h SW 15,2 C 21,3 C 6,8 km/h
21.05.2012 12:00 23,4 C 60 % 996,8 hPa 0,0 l/m 12,3 km/h W-NW 15,2 C 21,9 C 6,8 km/h
21.05.2012 13:00 23,1 C 58 % 996,8 hPa 0,0 l/m 5,2 km/h S-SW 14,4 C 23,1 C 2,9 km/h
21.05.2012 14:00 24,1 C 55 % 996,6 hPa 0,0 l/m 24,0 km/h S-SW 14,5 C 21,0 C 13,3 km/h
21.05.2012 15:00 22,2 C 59 % 996,9 hPa 0,0 l/m 0,6 km/h W-SW 13,8 C 22,2 C 0,4 km/h
21.05.2012 16:00 20,5 C 63 % 996,9 hPa 0,0 l/m 19,4 km/h S-SO 13,2 C 17,0 C 10,8 km/h
21.05.2012 17:00 15,4 C 82 % 998,0 hPa 0,4 l/m 12,3 km/h S 12,3 C 12,6 C 6,8 km/h
21.05.2012 18:00 14,9 C 83 % 998,1 hPa 1,4 l/m 0,0 km/h W-SW 12,0 C 14,9 C 0,0 km/h
21.05.2012 19:00 15,6 C 83 % 998,3 hPa 0,4 l/m 0,0 km/h N 12,7 C 15,6 C 0,0 km/h
21.05.2012 20:00 14,9 C 83 % 998,4 hPa 0,7 l/m 0,0 km/h O-NO 12,0 C 14,9 C 0,0 km/h
21.05.2012 21:00 14,5 C 82 % 998,5 hPa 0,0 l/m 0,0 km/h SO 11,5 C 14,5 C 0,0 km/h
21.05.2012 22:00 14,4 C 81 % 999,2 hPa 2,5 l/m 0,6 km/h S-SO 11,2 C 14,4 C 0,4 km/h
21.05.2012 23:00 13,9 C 79 % 999,5 hPa 3,6 l/m 1,9 km/h W-SW 10,3 C 13,9 C 1,1 km/h
22.05.2012 00:00 13,8 C 78 % 999,5 hPa 0,7 l/m 3,9 km/h S 10,0 C 13,8 C 2,2 km/h
22.05.2012 01:00 13,6 C 80 % 999,4 hPa 0,0 l/m 6,5 km/h SW 10,2 C 13,6 C 3,6 km/h
22.05.2012 02:00 13,6 C 82 % 999,3 hPa 0,0 l/m 0,0 km/h N 10,6 C 13,6 C 0,0 km/h
22.05.2012 03:00 13,4 C 82 % 999,8 hPa 0,0 l/m 0,0 km/h O-NO 10,4 C 13,4 C 0,0 km/h
22.05.2012 04:00 13,3 C 81 % 1000,0 hPa 0,0 l/m 0,0 km/h N-NO 10,1 C 13,3 C 0,0 km/h
22.05.2012 05:00 13,3 C 80 % 1000,3 hPa 0,0 l/m 0,0 km/h NO 9,9 C 13,3 C 0,0 km/h
22.05.2012 06:00 12,9 C 79 % 1001,0 hPa 0,0 l/m 0,0 km/h O-NO 9,3 C 12,9 C 0,0 km/h
22.05.2012 07:00 14,5 C 78 % 1001,4 hPa 0,0 l/m 0,0 km/h NO 10,7 C 14,5 C 0,0 km/h
22.05.2012 08:00 17,6 C 83 % 1001,9 hPa 0,0 l/m 0,0 km/h S-SW 14,7 C 17,6 C 0,0 km/h
22.05.2012 09:00 19,5 C 75 % 1002,7 hPa 0,0 l/m 0,0 km/h W 14,9 C 19,5 C 0,0 km/h
22.05.2012 10:00 21,6 C 70 % 1003,1 hPa 0,0 l/m 0,0 km/h NO 15,9 C 21,6 C 0,0 km/h
22.05.2012 11:00 21,7 C 66 % 1003,6 hPa 0,0 l/m 0,0 km/h W-NW 15,1 C 21,7 C 0,0 km/h
22.05.2012 12:00 23,2 C 57 % 1004,6 hPa 0,0 l/m 0,0 km/h N-NO 14,2 C 23,2 C 0,0 km/h
22.05.2012 13:00 25,4 C 53 % 1005,0 hPa 0,0 l/m 10,4 km/h W 15,1 C 24,5 C 5,8 km/h
22.05.2012 14:00 25,4 C 54 % 1005,8 hPa 0,0 l/m 0,0 km/h W-SW 15,4 C 25,4 C 0,0 km/h
22.05.2012 15:00 24,9 C 56 % 1006,5 hPa 0,0 l/m 3,2 km/h N-NO 15,5 C 24,9 C 1,8 km/h
22.05.2012 16:00 21,9 C 62 % 1007,1 hPa 0,0 l/m 8,4 km/h W-NW 14,3 C 21,2 C 4,7 km/h
22.05.2012 17:00 28,2 C 47 % 1007,9 hPa 0,0 l/m 2,6 km/h W-NW 15,8 C 28,2 C 1,4 km/h
22.05.2012 18:00 21,7 C 64 % 1008,4 hPa 0,0 l/m 0,0 km/h W-SW 14,6 C 21,7 C 0,0 km/h
22.05.2012 19:00 19,6 C 72 % 1009,5 hPa 0,0 l/m 26,6 km/h W-SW 14,4 C 14,6 C 14,8 km/h
22.05.2012 20:00 17,8 C 78 % 1010,4 hPa 0,0 l/m 0,0 km/h W 13,9 C 17,8 C 0,0 km/h
22.05.2012 21:00 16,3 C 83 % 1011,6 hPa 0,4 l/m 0,0 km/h SW 13,4 C 16,3 C 0,0 km/h
22.05.2012 22:00 15,9 C 83 % 1013,0 hPa 0,0 l/m 0,6 km/h W-NW 13,0 C 15,9 C 0,4 km/h
22.05.2012 23:00 15,3 C 83 % 1013,6 hPa 0,0 l/m 0,0 km/h W 12,4 C 15,3 C 0,0 km/h
23.05.2012 00:00 15,0 C 83 % 1014,1 hPa 0,0 l/m 0,0 km/h W 12,1 C 15,0 C 0,0 km/h
23.05.2012 01:00 14,7 C 83 % 1014,7 hPa 0,0 l/m 0,0 km/h W 11,8 C 14,7 C 0,0 km/h
23.05.2012 02:00 14,6 C 83 % 1014,5 hPa 0,0 l/m 0,0 km/h W-NW 11,7 C 14,6 C 0,0 km/h
23.05.2012 03:00 14,3 C 83 % 1014,8 hPa 0,7 l/m 0,0 km/h SO 11,5 C 14,3 C 0,0 km/h
23.05.2012 04:00 14,3 C 83 % 1015,1 hPa 0,0 l/m 0,0 km/h S-SO 11,5 C 14,3 C 0,0 km/h
23.05.2012 05:00 14,4 C 82 % 1015,4 hPa 0,0 l/m 0,0 km/h N-NO 11,4 C 14,4 C 0,0 km/h
23.05.2012 06:00 14,5 C 82 % 1015,9 hPa 0,0 l/m 0,0 km/h W 11,5 C 14,5 C 0,0 km/h
23.05.2012 07:00 14,5 C 82 % 1016,4 hPa 0,0 l/m 0,0 km/h W 11,5 C 14,5 C 0,0 km/h
23.05.2012 08:00 14,4 C 81 % 1017,1 hPa 0,0 l/m 0,0 km/h S 11,2 C 14,4 C 0,0 km/h
23.05.2012 09:00 14,9 C 80 % 1017,8 hPa 0,0 l/m 0,0 km/h SW 11,5 C 14,9 C 0,0 km/h
23.05.2012 10:00 15,3 C 82 % 1017,9 hPa 0,0 l/m 8,4 km/h W-SW 12,2 C 14,2 C 4,7 km/h
23.05.2012 11:00 16,1 C 82 % 1018,7 hPa 0,0 l/m 0,0 km/h W-SW 13,0 C 16,1 C 0,0 km/h
23.05.2012 12:00 17,6 C 83 % 1019,0 hPa 0,0 l/m 0,0 km/h S-SO 14,7 C 17,6 C 0,0 km/h
23.05.2012 13:00 18,8 C 80 % 1019,1 hPa 0,0 l/m 0,0 km/h SW 15,3 C 18,8 C 0,0 km/h
23.05.2012 14:00 22,2 C 73 % 1018,9 hPa 0,0 l/m 38,2 km/h W 17,1 C 17,1 C 21,2 km/h
23.05.2012 15:00 22,8 C 69 % 1019,1 hPa 0,0 l/m 0,0 km/h S 16,8 C 22,8 C 0,0 km/h
23.05.2012 16:00 21,7 C 72 % 1019,1 hPa 0,0 l/m 2,6 km/h SW 16,4 C 21,7 C 1,4 km/h
23.05.2012 17:00 22,8 C 74 % 1019,6 hPa 0,0 l/m 0,0 km/h W 17,9 C 22,8 C 0,0 km/h
23.05.2012 18:00 20,4 C 76 % 1019,7 hPa 0,0 l/m 0,0 km/h S-SO 16,0 C 20,4 C 0,0 km/h
23.05.2012 19:00 22,5 C 71 % 1019,5 hPa 0,0 l/m 0,0 km/h O-NO 17,0 C 22,5 C 0,0 km/h
23.05.2012 20:00 18,5 C 79 % 1019,8 hPa 0,0 l/m 0,0 km/h O-NO 14,8 C 18,5 C 0,0 km/h
23.05.2012 21:00 16,2 C 83 % 1020,1 hPa 0,0 l/m 0,0 km/h NO 13,3 C 16,2 C 0,0 km/h
23.05.2012 22:00 15,3 C 83 % 1020,8 hPa 0,0 l/m 0,0 km/h O-SO 12,4 C 15,3 C 0,0 km/h
23.05.2012 23:00 16,1 C 81 % 1020,8 hPa 0,0 l/m 0,0 km/h SO 12,8 C 16,1 C 0,0 km/h
24.05.2012 00:00 16,3 C 81 % 1020,9 hPa 0,0 l/m 0,0 km/h SO 13,0 C 16,3 C 0,0 km/h
24.05.2012 01:00 16,3 C 81 % 1020,8 hPa 0,0 l/m 0,0 km/h SO 13,0 C 16,3 C 0,0 km/h
24.05.2012 02:00 16,4 C 80 % 1020,8 hPa 0,0 l/m 0,0 km/h O 12,9 C 16,4 C 0,0 km/h
24.05.2012 03:00 16,4 C 81 % 1020,6 hPa 0,0 l/m 0,0 km/h SO 13,1 C 16,4 C 0,0 km/h
24.05.2012 04:00 16,3 C 81 % 1020,6 hPa 0,0 l/m 0,0 km/h SO 13,0 C 16,3 C 0,0 km/h
24.05.2012 05:00 16,2 C 81 % 1020,7 hPa 0,0 l/m 0,0 km/h SO 12,9 C 16,2 C 0,0 km/h
24.05.2012 06:00 16,4 C 81 % 1020,9 hPa 0,0 l/m 0,0 km/h O-SO 13,1 C 16,4 C 0,0 km/h
24.05.2012 07:00 17,6 C 81 % 1020,8 hPa 0,0 l/m 0,0 km/h SO 14,3 C 17,6 C 0,0 km/h
24.05.2012 08:00 22,5 C 78 % 1020,9 hPa 0,0 l/m 0,0 km/h NW 18,5 C 22,5 C 0,0 km/h
24.05.2012 09:00 25,9 C 64 % 1020,9 hPa 0,0 l/m 0,0 km/h W 18,6 C 25,9 C 0,0 km/h
24.05.2012 10:00 27,2 C 62 % 1020,8 hPa 0,0 l/m 0,0 km/h W-SW 19,3 C 27,2 C 0,0 km/h
24.05.2012 11:00 27,9 C 60 % 1020,6 hPa 0,0 l/m 5,2 km/h W-NW 19,4 C 27,9 C 2,9 km/h
24.05.2012 12:00 28,2 C 60 % 1020,2 hPa 0,0 l/m 10,4 km/h W-NW 19,7 C 27,7 C 5,8 km/h
24.05.2012 13:00 28,7 C 63 % 1019,4 hPa 0,0 l/m 3,2 km/h W-NW 20,9 C 28,7 C 1,8 km/h
24.05.2012 14:00 27,1 C 62 % 1019,0 hPa 0,0 l/m 2,6 km/h W 19,2 C 27,1 C 1,4 km/h
24.05.2012 15:00 22,7 C 77 % 1019,0 hPa 0,0 l/m 1,3 km/h S 18,5 C 22,7 C 0,7 km/h
24.05.2012 16:00 27,4 C 62 % 1018,4 hPa 0,0 l/m 16,2 km/h S-SO 19,5 C 26,1 C 9,0 km/h
24.05.2012 17:00 21,0 C 76 % 1018,2 hPa 0,0 l/m 15,6 km/h NO 16,6 C 18,3 C 8,6 km/h
24.05.2012 18:00 20,0 C 74 % 1018,5 hPa 0,0 l/m 0,0 km/h N-NO 15,2 C 20,0 C 0,0 km/h
24.05.2012 19:00 19,2 C 80 % 1018,5 hPa 0,4 l/m 1,3 km/h O-SO 15,7 C 19,2 C 0,7 km/h
24.05.2012 20:00 17,2 C 82 % 1018,6 hPa 0,4 l/m 0,0 km/h SO 14,1 C 17,2 C 0,0 km/h
24.05.2012 21:00 16,1 C 83 % 1018,6 hPa 0,0 l/m 2,6 km/h S 13,2 C 16,1 C 1,4 km/h
24.05.2012 22:00 14,9 C 83 % 1018,9 hPa 0,0 l/m 0,0 km/h S-SO 12,0 C 14,9 C 0,0 km/h
24.05.2012 23:00 14,4 C 83 % 1019,0 hPa 0,0 l/m 0,0 km/h N-NW 11,5 C 14,4 C 0,0 km/h
25.05.2012 00:00 14,1 C 82 % 1018,8 hPa 0,0 l/m 0,0 km/h W 11,1 C 14,1 C 0,0 km/h
25.05.2012 01:00 13,1 C 82 % 1018,7 hPa 0,0 l/m 0,0 km/h S-SO 10,1 C 13,1 C 0,0 km/h
25.05.2012 02:00 12,2 C 81 % 1018,3 hPa 0,0 l/m 0,0 km/h W-NW 9,0 C 12,2 C 0,0 km/h
25.05.2012 03:00 11,8 C 80 % 1017,9 hPa 0,0 l/m 0,0 km/h N 8,5 C 11,8 C 0,0 km/h
25.05.2012 04:00 12,1 C 78 % 1017,4 hPa 0,0 l/m 0,0 km/h N-NO 8,4 C 12,1 C 0,0 km/h
25.05.2012 05:00 13,6 C 84 % 1017,5 hPa 0,0 l/m 11,0 km/h S-SO 10,9 C 11,1 C 6,1 km/h
25.05.2012 06:00 15,9 C 74 % 1017,9 hPa 0,0 l/m 16,8 km/h SO 11,3 C 11,7 C 9,4 km/h
25.05.2012 07:00 18,1 C 68 % 1018,2 hPa 0,0 l/m 5,8 km/h O 12,1 C 18,1 C 3,2 km/h
25.05.2012 08:00 24,5 C 52 % 1018,2 hPa 0,0 l/m 1,9 km/h N 14,0 C 24,5 C 1,1 km/h
25.05.2012 09:00 28,6 C 41 % 1018,2 hPa 0,0 l/m 0,0 km/h O-SO 14,0 C 28,6 C 0,0 km/h
25.05.2012 10:00 27,8 C 41 % 1017,8 hPa 0,0 l/m 0,0 km/h SO 13,3 C 27,8 C 0,0 km/h
25.05.2012 11:00 26,6 C 41 % 1017,9 hPa 0,0 l/m 0,0 km/h N 12,2 C 26,6 C 0,0 km/h
25.05.2012 12:00 27,5 C 39 % 1017,4 hPa 0,0 l/m 3,2 km/h N-NO 12,3 C 27,5 C 1,8 km/h
25.05.2012 13:00 27,9 C 38 % 1016,7 hPa 0,0 l/m 5,8 km/h NO 12,2 C 27,9 C 3,2 km/h
25.05.2012 14:00 28,6 C 37 % 1016,2 hPa 0,0 l/m 6,5 km/h O 12,5 C 28,6 C 3,6 km/h
25.05.2012 15:00 30,8 C 31 % 1015,7 hPa 0,0 l/m 0,0 km/h N-NO 11,7 C 30,8 C 0,0 km/h
25.05.2012 16:00 32,2 C 26 % 1015,7 hPa 0,0 l/m 0,0 km/h N 10,2 C 32,2 C 0,0 km/h
25.05.2012 17:00 33,3 C 25 % 1015,2 hPa 0,0 l/m 0,0 km/h N 10,6 C 33,3 C 0,0 km/h
25.05.2012 18:00 30,8 C 22 % 1015,1 hPa 0,0 l/m 20,1 km/h O 6,6 C 30,2 C 11,2 km/h
25.05.2012 19:00 26,0 C 28 % 1015,0 hPa 0,0 l/m 6,5 km/h O-NO 6,1 C 26,0 C 3,6 km/h
25.05.2012 20:00 21,7 C 30 % 1015,2 hPa 0,0 l/m 0,0 km/h NO 3,4 C 21,7 C 0,0 km/h
25.05.2012 21:00 19,1 C 38 % 1015,4 hPa 0,0 l/m 0,0 km/h N-NO 4,4 C 19,1 C 0,0 km/h
25.05.2012 22:00 16,3 C 49 % 1015,9 hPa 0,0 l/m 5,2 km/h N-NO 5,6 C 16,3 C 2,9 km/h
25.05.2012 23:00 14,8 C 55 % 1015,8 hPa 0,0 l/m 5,2 km/h N-NO 5,8 C 14,8 C 2,9 km/h
26.05.2012 00:00 14,8 C 56 % 1015,5 hPa 0,0 l/m 21,4 km/h N-NO 6,1 C 9,1 C 11,9 km/h
26.05.2012 01:00 13,6 C 59 % 1015,2 hPa 0,0 l/m 0,0 km/h NO 5,7 C 13,6 C 0,0 km/h
26.05.2012 02:00 10,9 C 70 % 1015,3 hPa 0,0 l/m 0,0 km/h S-SW 5,6 C 10,9 C 0,0 km/h
26.05.2012 03:00 9,4 C 75 % 1015,4 hPa 0,0 l/m 0,0 km/h SO 5,2 C 9,4 C 0,0 km/h
26.05.2012 04:00 8,9 C 79 % 1015,1 hPa 0,0 l/m 0,0 km/h N-NO 5,5 C 8,9 C 0,0 km/h
26.05.2012 05:00 9,1 C 79 % 1015,2 hPa 0,0 l/m 0,0 km/h W-NW 5,7 C 9,1 C 0,0 km/h
26.05.2012 06:00 8,8 C 79 % 1016,0 hPa 0,0 l/m 0,0 km/h SO 5,4 C 8,8 C 0,0 km/h
26.05.2012 07:00 13,1 C 78 % 1016,3 hPa 0,0 l/m 0,0 km/h W-NW 9,4 C 13,1 C 0,0 km/h
26.05.2012 08:00 23,6 C 45 % 1016,4 hPa 0,0 l/m 0,0 km/h N-NO 11,0 C 23,6 C 0,0 km/h
26.05.2012 09:00 25,8 C 41 % 1016,1 hPa 0,0 l/m 3,9 km/h N-NO 11,5 C 25,8 C 2,2 km/h
26.05.2012 10:00 27,3 C 39 % 1015,9 hPa 0,0 l/m 0,0 km/h S-SW 12,1 C 27,3 C 0,0 km/h
26.05.2012 11:00 28,9 C 31 % 1015,5 hPa 0,0 l/m 9,1 km/h NO 10,1 C 28,6 C 5,0 km/h
26.05.2012 12:00 27,3 C 35 % 1015,1 hPa 0,0 l/m 0,0 km/h NO 10,5 C 27,3 C 0,0 km/h
26.05.2012 13:00 27,8 C 30 % 1015,1 hPa 0,0 l/m 0,0 km/h O-SO 8,6 C 27,8 C 0,0 km/h
26.05.2012 14:00 28,6 C 27 % 1014,8 hPa 0,0 l/m 0,0 km/h O 7,8 C 28,6 C 0,0 km/h
26.05.2012 15:00 30,5 C 25 % 1014,5 hPa 0,0 l/m 0,6 km/h SO 8,2 C 30,5 C 0,4 km/h
26.05.2012 16:00 33,3 C 22 % 1014,2 hPa 0,0 l/m 16,2 km/h O 8,7 C 33,3 C 9,0 km/h
26.05.2012 17:00 33,6 C 21 % 1014,1 hPa 0,0 l/m 3,9 km/h O-NO 8,2 C 33,6 C 2,2 km/h
26.05.2012 18:00 31,3 C 22 % 1014,0 hPa 0,0 l/m 2,6 km/h NO 7,0 C 31,3 C 1,4 km/h
26.05.2012 19:00 25,9 C 28 % 1014,1 hPa 0,0 l/m 0,0 km/h N-NO 6,0 C 25,9 C 0,0 km/h
26.05.2012 20:00 21,8 C 36 % 1014,4 hPa 0,0 l/m 0,0 km/h NO 6,1 C 21,8 C 0,0 km/h
26.05.2012 21:00 19,0 C 41 % 1014,6 hPa 0,0 l/m 0,0 km/h O-NO 5,4 C 19,0 C 0,0 km/h
26.05.2012 22:00 15,3 C 51 % 1015,1 hPa 0,0 l/m 0,0 km/h NO 5,2 C 15,3 C 0,0 km/h
26.05.2012 23:00 11,8 C 66 % 1015,3 hPa 0,0 l/m 0,0 km/h SO 5,7 C 11,8 C 0,0 km/h
27.05.2012 00:00 11,4 C 71 % 1015,6 hPa 0,0 l/m 1,9 km/h O-NO 6,3 C 11,4 C 1,1 km/h
27.05.2012 01:00 10,3 C 73 % 1015,5 hPa 0,0 l/m 0,0 km/h SO 5,7 C 10,3 C 0,0 km/h
27.05.2012 02:00 9,3 C 78 % 1015,5 hPa 0,0 l/m 0,0 km/h SO 5,7 C 9,3 C 0,0 km/h
27.05.2012 03:00 8,9 C 79 % 1015,5 hPa 0,0 l/m 0,0 km/h N-NO 5,5 C 8,9 C 0,0 km/h
27.05.2012 04:00 9,0 C 79 % 1015,4 hPa 0,0 l/m 4,5 km/h N-NO 5,6 C 9,0 C 2,5 km/h
27.05.2012 05:00 8,5 C 80 % 1015,4 hPa 0,0 l/m 0,0 km/h N-NO 5,3 C 8,5 C 0,0 km/h
27.05.2012 06:00 9,8 C 78 % 1015,5 hPa 0,0 l/m 0,0 km/h N 6,1 C 9,8 C 0,0 km/h
27.05.2012 07:00 12,8 C 74 % 1015,5 hPa 0,0 l/m 0,0 km/h N-NO 8,3 C 12,8 C 0,0 km/h
27.05.2012 08:00 17,4 C 63 % 1015,7 hPa 0,0 l/m 0,0 km/h O-SO 10,3 C 17,4 C 0,0 km/h
27.05.2012 09:00 19,1 C 59 % 1015,9 hPa 0,0 l/m 0,0 km/h W 10,9 C 19,1 C 0,0 km/h
27.05.2012 10:00 19,9 C 59 % 1015,9 hPa 0,0 l/m 3,2 km/h W-SW 11,6 C 19,9 C 1,8 km/h
27.05.2012 11:00 21,9 C 57 % 1016,0 hPa 0,0 l/m 0,0 km/h S-SW 13,0 C 21,9 C 0,0 km/h
27.05.2012 12:00 23,1 C 56 % 1015,5 hPa 0,0 l/m 6,5 km/h NW 13,8 C 23,1 C 3,6 km/h
27.05.2012 13:00 26,0 C 46 % 1015,0 hPa 0,0 l/m 9,1 km/h O-NO 13,5 C 25,4 C 5,0 km/h
27.05.2012 14:00 27,3 C 34 % 1014,5 hPa 0,0 l/m 0,0 km/h N-NO 10,0 C 27,3 C 0,0 km/h
27.05.2012 15:00 23,1 C 40 % 1014,1 hPa 0,0 l/m 19,4 km/h N-NO 8,8 C 20,3 C 10,8 km/h
27.05.2012 16:00 23,9 C 38 % 1014,5 hPa 0,0 l/m 3,2 km/h NW 8,7 C 23,9 C 1,8 km/h
27.05.2012 17:00 26,4 C 36 % 1014,1 hPa 0,0 l/m 9,1 km/h N 10,1 C 25,9 C 5,0 km/h
27.05.2012 18:00 27,5 C 37 % 1013,8 hPa 0,0 l/m 0,0 km/h N-NO 11,5 C 27,5 C 0,0 km/h
27.05.2012 19:00 21,3 C 46 % 1013,8 hPa 0,0 l/m 2,6 km/h N-NO 9,2 C 21,3 C 1,4 km/h
27.05.2012 20:00 20,2 C 51 % 1013,8 hPa 0,0 l/m 0,0 km/h N-NW 9,7 C 20,2 C 0,0 km/h
27.05.2012 21:00 17,7 C 61 % 1013,9 hPa 0,0 l/m 0,0 km/h O-SO 10,1 C 17,7 C 0,0 km/h
27.05.2012 22:00 15,2 C 65 % 1014,2 hPa 0,0 l/m 0,0 km/h O-SO 8,7 C 15,2 C 0,0 km/h
27.05.2012 23:00 14,3 C 68 % 1014,4 hPa 0,0 l/m 0,0 km/h O 8,5 C 14,3 C 0,0 km/h
Min-Datum _ 27.05.12 26.05.12 21.05.12 - 21.05.12 - 25.05.12 27.05.12 21.05.12
_ Min-Zeit 05:30 17:30 14:30 - 02:30 - 20:30 05:30 02:30
Minimum _ 8,5 C 21 % 996,6 hPa - 0,0 km/h - 3,4 C 8,5 C 0,0 km/h
Max-Datum _ 26.05.12 25.05.12 24.05.12 21.05.12 23.05.12 - 24.05.12 26.05.12 23.05.12
_ Max-Zeit 17:30 05:30 00:30 23:30 14:30 - 13:30 17:30 14:30
Maximum _ 33,6 C 84 % 1020,9 hPa 3,6 l/m 38,2 km/h
W
- 20,9 C 33,6 C 21,2 km/h
W
Durchschnitt _ 19,1 C 66 % 1012,5 hPa #11,4 l/m 2,9 km/h N-NO 11,6 C 18,8 C 1,6 km/h
www.sexauwetter.de